Time;durP1;ratioP1;P1;durP2;ratioP2;P2;SDS_P1;SDS_P2;PMS_P1;PMS_P2;Temp;Humidity;BMP_temperature;BMP_pressure;BME280_temperature;BME280_humidity;BME280_pressure;Samples;Min_cycle;Max_cycle;Signal;HPM_P1;HPM_P2
2022/03/03 00:00:15;;;;;;;209.17;83.03;;;;;;;-3.15;66.67;99395.44;4289384;81;21091;-91
2022/03/03 00:06:18;;;;;;;198.63;77.73;;;;;;;-3.16;66.64;99397.86;4289305;81;21087;-90
2022/03/03 00:12:20;;;;;;;209.97;87.10;;;;;;;-3.18;65.96;99392.78;4290354;81;21059;-92
2022/03/03 00:18:22;;;;;;;201.47;81.77;;;;;;;-3.18;66.88;99380.73;4291928;81;21058;-91
2022/03/03 00:24:23;;;;;;;212.67;84.07;;;;;;;-3.10;68.11;99378.01;4282439;81;21076;-90
2022/03/03 00:30:24;;;;;;;207.83;83.30;;;;;;;-2.95;68.10;99370.67;4291311;81;21058;-90
2022/03/03 00:36:27;;;;;;;208.77;83.80;;;;;;;-2.81;68.29;99364.14;4289597;81;21131;-90
2022/03/03 00:42:28;;;;;;;195.70;82.87;;;;;;;-2.73;68.69;99362.22;4286840;81;22246;-90
2022/03/03 00:48:30;;;;;;;196.57;80.80;;;;;;;-2.75;68.99;99366.52;4288480;81;21048;-89
2022/03/03 00:54:31;;;;;;;172.50;69.63;;;;;;;-2.72;68.85;99354.42;4292301;80;21056;-90
2022/03/03 01:00:32;;;;;;;188.87;72.20;;;;;;;-2.75;67.22;99355.80;4290095;81;21060;-89
2022/03/03 01:06:34;;;;;;;166.53;69.97;;;;;;;-2.71;67.65;99350.12;4291491;81;21068;-90
2022/03/03 01:12:38;;;;;;;159.00;67.17;;;;;;;-2.76;67.54;99348.04;4290127;81;21040;-91
2022/03/03 01:18:42;;;;;;;173.57;70.30;;;;;;;-2.75;67.99;99330.34;4289529;81;21063;-95
2022/03/03 01:24:45;;;;;;;169.83;69.53;;;;;;;-2.70;68.76;99330.84;4284656;81;21037;-90
2022/03/03 01:30:47;;;;;;;158.13;67.33;;;;;;;-2.54;69.15;99326.95;4289306;81;21599;-91
2022/03/03 01:36:48;;;;;;;173.47;71.70;;;;;;;-2.44;69.18;99328.19;4295971;81;22257;-94
2022/03/03 01:42:50;;;;;;;170.83;68.63;;;;;;;-2.37;69.46;99327.33;4294459;81;21070;-93
2022/03/03 01:48:53;;;;;;;173.10;67.87;;;;;;;-2.36;69.62;99319.00;4301256;81;21595;-90
2022/03/03 01:54:54;;;;;;;157.43;67.93;;;;;;;-2.31;69.74;99308.77;4303919;81;21588;-91
2022/03/03 02:00:56;;;;;;;176.03;71.87;;;;;;;-2.26;69.75;99303.36;4297059;81;21359;-92
2022/03/03 02:06:58;;;;;;;171.00;71.93;;;;;;;-2.21;69.70;99304.09;4299101;81;21122;-90
2022/03/03 02:13:02;;;;;;;169.43;70.63;;;;;;;-2.21;69.81;99310.02;4297537;81;21629;-91
2022/03/03 02:19:04;;;;;;;201.40;78.13;;;;;;;-2.20;69.60;99311.60;4302591;81;21744;-90
2022/03/03 02:25:08;;;;;;;178.37;75.53;;;;;;;-2.21;69.63;99310.80;4298918;81;21043;-91
2022/03/03 02:31:10;;;;;;;196.00;79.87;;;;;;;-2.22;69.72;99297.67;4297325;81;21095;-90
2022/03/03 02:37:15;;;;;;;195.63;81.30;;;;;;;-2.20;70.10;99296.86;4304342;81;21556;-91
2022/03/03 02:43:18;;;;;;;192.93;81.03;;;;;;;-2.17;70.25;99286.89;4300941;81;21054;-90
2022/03/03 02:49:20;;;;;;;201.97;81.03;;;;;;;-2.11;70.19;99288.44;4301321;81;21630;-89
2022/03/03 02:55:21;;;;;;;183.27;76.37;;;;;;;-2.09;70.15;99279.56;4298014;81;21032;-90
2022/03/03 03:01:22;;;;;;;195.97;82.50;;;;;;;-2.10;69.45;99268.03;4298472;81;21035;-92
2022/03/03 03:07:24;;;;;;;196.40;80.67;;;;;;;-2.09;70.21;99268.84;4298631;81;21067;-90
2022/03/03 03:13:25;;;;;;;210.33;88.37;;;;;;;-2.07;69.69;99270.70;4305257;81;20992;-89
2022/03/03 03:19:27;;;;;;;217.03;92.67;;;;;;;-2.11;69.79;99258.39;4299038;81;21052;-91
2022/03/03 03:25:28;;;;;;;222.07;91.33;;;;;;;-2.09;70.48;99255.42;4299434;81;21044;-94
2022/03/03 03:31:30;;;;;;;235.20;95.37;;;;;;;-2.07;70.53;99256.72;4297894;81;21035;-92
2022/03/03 03:37:34;;;;;;;228.23;97.57;;;;;;;-2.07;70.63;99266.11;4273157;81;21654;-92
2022/03/03 03:43:36;;;;;;;235.33;96.63;;;;;;;-2.06;70.76;99265.05;4246481;81;38020;-90
2022/03/03 03:49:41;;;;;;;234.97;95.77;;;;;;;-2.09;70.74;99266.97;4244503;82;21011;-91
2022/03/03 03:55:44;;;;;;;223.13;94.77;;;;;;;-2.15;70.34;99268.64;4245227;82;21024;-89
2022/03/03 04:01:48;;;;;;;234.62;95.92;;;;;;;-2.20;70.87;99268.16;4250602;82;21058;-91
2022/03/03 04:07:50;;;;;;;240.00;100.60;;;;;;;-2.22;70.73;99268.17;4243940;82;21098;-90
2022/03/03 04:13:52;;;;;;;236.00;97.97;;;;;;;-2.29;71.09;99265.05;4248991;82;21518;-91
2022/03/03 04:19:53;;;;;;;240.13;98.60;;;;;;;-2.36;70.76;99252.50;4248497;82;21543;-89
2022/03/03 04:25:57;;;;;;;235.43;98.20;;;;;;;-2.50;71.25;99248.90;4244588;82;21091;-91
2022/03/03 04:31:59;;;;;;;222.43;96.60;;;;;;;-2.66;71.61;99239.44;4246791;82;21126;-93
2022/03/03 04:38:00;;;;;;;220.07;91.37;;;;;;;-2.77;71.59;99225.31;4210068;82;21130;-91
2022/03/03 04:44:02;;;;;;;245.73;97.43;;;;;;;-2.86;71.59;99219.51;4180907;83;21057;-90
2022/03/03 04:50:15;;;;;;;221.40;91.93;;;;;;;-2.98;71.92;99226.59;4193934;83;21062;-89
2022/03/03 04:56:19;;;;;;;229.53;96.47;;;;;;;-2.99;72.29;99232.23;4200400;83;21077;-92
2022/03/03 05:02:23;;;;;;;222.35;97.22;;;;;;;-3.00;72.34;99213.20;4167952;82;2117816;-91
2022/03/03 05:08:28;;;;;;;207.37;89.10;;;;;;;-3.06;71.99;99209.79;4210684;82;21606;-90
2022/03/03 05:14:29;;;;;;;210.10;83.33;;;;;;;-3.19;72.42;99205.63;4244898;83;21072;-93
2022/03/03 05:20:35;;;;;;;206.60;84.33;;;;;;;-3.21;72.54;99207.25;4243298;82;21103;-90
2022/03/03 05:26:37;;;;;;;199.12;83.27;;;;;;;-3.24;72.36;99199.75;4243811;82;21074;-92
2022/03/03 05:32:40;;;;;;;207.93;82.90;;;;;;;-3.38;72.87;99206.30;4236946;82;21114;-92
2022/03/03 05:38:42;;;;;;;229.63;91.90;;;;;;;-3.41;72.95;99208.19;4230742;81;21073;-91
2022/03/03 05:44:48;;;;;;;255.93;102.20;;;;;;;-3.43;73.11;99207.66;4211555;83;21060;-91
2022/03/03 05:50:50;;;;;;;245.10;101.53;;;;;;;-3.52;73.30;99217.37;4228802;82;21072;-89
2022/03/03 05:56:56;;;;;;;262.97;106.07;;;;;;;-3.55;73.47;99222.47;4226157;82;21097;-91
2022/03/03 06:03:02;;;;;;;;;;;;;;;-3.56;73.48;99220.88;4194419;83;21121;-93
2022/03/03 06:09:25;;;;;;;238.67;100.30;;;;;;;-3.72;73.02;99216.16;4218594;82;20202;-89
2022/03/03 06:15:29;;;;;;;208.90;89.57;;;;;;;-3.83;72.53;99217.30;4203374;83;21042;-90
2022/03/03 06:21:30;;;;;;;257.23;104.93;;;;;;;-3.75;72.97;99214.58;4217586;82;21477;-88
2022/03/03 06:27:38;;;;;;;249.90;108.33;;;;;;;-3.43;74.50;99219.70;4222418;83;21172;-89
2022/03/03 06:33:41;;;;;;;238.50;101.10;;;;;;;-2.96;74.73;99218.28;4221434;83;21076;-96
2022/03/03 06:39:43;;;;;;;234.60;101.47;;;;;;;-2.34;73.87;99214.95;4223787;83;22309;-88
2022/03/03 06:45:44;;;;;;;237.63;105.07;;;;;;;-1.81;74.78;99205.70;4211347;83;21034;-90
2022/03/03 06:51:47;;;;;;;244.80;107.57;;;;;;;-1.32;74.14;99206.59;4222580;83;21120;-88
2022/03/03 06:57:53;;;;;;;228.17;100.47;;;;;;;-1.22;73.32;99211.02;4215884;83;21082;-90
2022/03/03 07:03:57;;;;;;;238.37;105.03;;;;;;;-1.46;72.60;99213.80;4222257;83;22569;-89
2022/03/03 07:10:01;;;;;;;240.30;102.90;;;;;;;-1.54;72.90;99220.36;4212582;83;21032;-89
2022/03/03 07:16:41;;;;;;;242.73;105.27;;;;;;;-1.64;72.71;99219.42;4219767;82;22131;-88
2022/03/03 07:23:00;;;;;;;228.83;98.27;;;;;;;-1.75;72.87;99218.49;4208793;82;21037;-90
2022/03/03 07:29:04;;;;;;;232.50;98.93;;;;;;;-1.50;73.28;99211.98;4221686;83;21077;-88
2022/03/03 07:35:12;;;;;;;197.70;90.60;;;;;;;-0.83;73.13;99216.81;4209853;83;21163;-89
2022/03/03 07:41:15;;;;;;;222.02;96.45;;;;;;;-0.26;72.80;99209.02;4224502;82;21073;-88
2022/03/03 07:47:18;;;;;;;192.62;86.92;;;;;;;0.39;72.80;99204.70;4224440;83;21107;-88
2022/03/03 07:53:19;;;;;;;194.75;86.85;;;;;;;0.99;71.72;99199.22;4225238;82;22328;-90
2022/03/03 07:59:23;;;;;;;196.68;89.05;;;;;;;1.54;71.22;99192.39;4224184;83;21050;-88
2022/03/03 08:05:28;;;;;;;192.80;85.85;;;;;;;1.79;70.32;99194.94;4223048;83;21536;-94
2022/03/03 08:11:30;;;;;;;186.18;85.42;;;;;;;2.35;69.76;99198.41;4224342;83;21072;-91
2022/03/03 08:17:34;;;;;;;160.15;73.97;;;;;;;2.95;69.62;99196.53;4225292;83;21064;-92
2022/03/03 08:23:36;;;;;;;154.95;74.12;;;;;;;3.46;68.74;99195.61;4226187;83;21524;-89
2022/03/03 08:29:38;;;;;;;154.80;72.42;;;;;;;3.74;67.85;99187.33;4224914;83;21492;-92
2022/03/03 08:35:43;;;;;;;150.10;67.65;;;;;;;3.54;66.65;99186.67;4228820;83;21096;-90
2022/03/03 08:41:45;;;;;;;135.97;62.35;;;;;;;3.38;66.00;99187.53;4230217;83;21085;-91
2022/03/03 08:47:59;;;;;;;135.32;63.45;;;;;;;3.05;65.78;99185.36;4225077;83;21117;-90
2022/03/03 08:54:01;;;;;;;129.18;61.55;;;;;;;3.46;66.20;99182.66;4226443;83;21988;-89
2022/03/03 09:00:08;;;;;;;131.43;63.00;;;;;;;4.64;66.13;99170.34;4225379;83;21140;-89
2022/03/03 09:06:15;;;;;;;123.75;63.08;;;;;;;5.40;64.87;99155.00;4232590;83;21190;-90
2022/03/03 09:12:17;;;;;;;135.25;64.80;;;;;;;6.27;63.50;99159.23;4198276;83;21120;-89
2022/03/03 09:18:18;;;;;;;112.35;56.50;;;;;;;6.63;63.29;99152.91;4226456;83;21029;-90
2022/03/03 09:24:20;;;;;;;108.20;53.65;;;;;;;6.56;61.99;99154.63;4227629;83;21100;-91
2022/03/03 09:30:22;;;;;;;109.97;54.40;;;;;;;6.45;61.39;99152.97;4228590;83;21084;-90
2022/03/03 09:36:24;;;;;;;99.50;51.37;;;;;;;6.99;61.53;99141.08;4227106;82;21057;-94
2022/03/03 09:42:34;;;;;;;96.60;51.10;;;;;;;7.28;59.66;99146.94;4212646;83;21053;-90
2022/03/03 09:48:36;;;;;;;86.82;47.65;;;;;;;7.97;60.14;99136.22;4218909;83;21052;-90
2022/03/03 09:54:37;;;;;;;96.00;49.30;;;;;;;8.53;59.14;99134.02;4220965;83;22343;-90
2022/03/03 10:00:41;;;;;;;74.58;41.20;;;;;;;8.37;58.35;99135.99;4208780;83;21044;-90
2022/03/03 10:06:43;;;;;;;60.60;33.15;;;;;;;8.66;57.77;99127.25;4341430;79;1534247;-91
2022/03/03 10:12:47;;;;;;;74.27;38.15;;;;;;;9.30;57.07;99119.73;4345180;80;21079;-88
2022/03/03 10:18:53;;;;;;;50.95;29.40;;;;;;;9.64;54.79;99119.33;4322284;81;21027;-89
2022/03/03 10:24:55;;;;;;;51.30;27.23;;;;;;;8.71;50.58;99115.25;4350930;80;21031;-90
2022/03/03 10:31:10;;;;;;;53.63;31.25;;;;;;;8.93;52.00;99113.16;4345265;81;21569;-90
2022/03/03 10:37:16;;;;;;;71.10;38.10;;;;;;;8.51;51.61;99109.58;4334036;80;21036;-89
2022/03/03 10:43:15;;;;;;;69.00;39.15;;;;;;;7.89;51.85;99109.94;4336700;80;21062;-89
2022/03/03 10:49:21;;;;;;;71.72;38.98;;;;;;;7.21;51.58;99116.01;4334319;81;21105;-92
2022/03/03 10:55:23;;;;;;;70.00;38.83;;;;;;;7.24;51.47;99107.14;4341425;81;21103;-92
2022/03/03 11:01:27;;;;;;;74.90;39.92;;;;;;;7.32;51.66;99104.82;4345881;81;21367;-90
2022/03/03 11:07:30;;;;;;;73.47;38.33;;;;;;;7.47;50.20;99091.20;4338162;80;21103;-90
2022/03/03 11:13:33;;;;;;;63.63;36.93;;;;;;;7.63;50.52;99085.19;4334002;80;21070;-88
2022/03/03 11:19:34;;;;;;;66.77;36.50;;;;;;;8.12;50.44;99075.20;4334680;80;21050;-89
2022/03/03 11:25:37;;;;;;;67.87;37.75;;;;;;;8.79;50.35;99059.09;4336810;81;21032;-89
2022/03/03 11:31:42;;;;;;;69.40;37.17;;;;;;;9.22;49.63;99054.60;4330397;80;21036;-88
2022/03/03 11:37:46;;;;;;;64.53;34.83;;;;;;;9.36;48.57;99048.01;4349852;80;21079;-89
2022/03/03 11:44:01;;;;;;;65.42;35.23;;;;;;;9.41;43.76;99044.20;4345145;81;21045;-89
2022/03/03 11:50:13;;;;;;;67.37;36.58;;;;;;;9.24;47.96;99028.28;4230984;83;21096;-89
2022/03/03 11:56:15;;;;;;;62.40;34.03;;;;;;;9.00;47.39;99031.40;4242954;83;22518;-94
2022/03/03 12:02:18;;;;;;;65.95;35.80;;;;;;;8.83;47.08;99019.59;4357121;80;21560;-89
2022/03/03 12:08:27;;;;;;;62.08;36.42;;;;;;;8.46;46.34;99023.92;4351525;80;21080;-91
2022/03/03 12:14:35;;;;;;;78.80;40.38;;;;;;;8.05;45.31;99016.44;4348088;81;21060;-88
2022/03/03 12:20:38;;;;;;;67.95;36.88;;;;;;;8.07;46.57;99014.12;4355181;80;21011;-89
2022/03/03 12:26:58;;;;;;;72.50;38.98;;;;;;;8.19;45.82;98998.42;4354849;80;20999;-90
2022/03/03 12:33:04;;;;;;;68.78;37.48;;;;;;;8.30;44.89;99004.14;4358537;81;21055;-90
2022/03/03 12:39:08;;;;;;;62.27;36.83;;;;;;;8.06;45.62;99004.38;4322898;80;21567;-90
2022/03/03 12:45:14;;;;;;;64.75;33.50;;;;;;;8.10;45.47;99001.94;4359264;81;21063;-91
2022/03/03 12:51:15;;;;;;;62.30;35.10;;;;;;;7.92;42.54;98993.97;4354105;81;21040;-88
2022/03/03 12:57:16;;;;;;;63.23;32.78;;;;;;;7.63;44.49;98986.30;4348965;80;22713;-92
2022/03/03 13:03:19;;;;;;;66.28;34.55;;;;;;;7.65;44.68;98989.47;4350786;81;21062;-88
2022/03/03 13:09:20;;;;;;;56.02;33.65;;;;;;;7.66;41.99;98983.67;4349840;81;21073;-95
2022/03/03 13:15:37;;;;;;;59.93;33.13;;;;;;;7.21;44.29;98983.41;4349522;81;21062;-89
2022/03/03 13:21:43;;;;;;;57.25;30.77;;;;;;;7.16;43.89;98980.94;4354575;81;21039;-88
2022/03/03 13:27:46;;;;;;;48.08;25.40;;;;;;;7.28;44.18;98974.62;4358180;81;21530;-90
2022/03/03 13:34:03;;;;;;;38.53;22.17;;;;;;;7.33;43.60;98974.35;4360986;80;21558;-94
2022/03/03 13:40:24;;;;;;;37.70;20.10;;;;;;;7.16;43.23;98962.45;4348298;80;21049;-89
2022/03/03 13:46:29;;;;;;;35.52;17.10;;;;;;;6.97;42.80;98965.12;4351845;81;21064;-91
2022/03/03 13:52:34;;;;;;;29.07;16.10;;;;;;;6.74;39.98;98957.31;4355438;81;21065;-95
2022/03/03 13:58:38;;;;;;;27.65;15.90;;;;;;;6.50;40.03;98954.17;4344778;81;21063;-90
2022/03/03 14:04:39;;;;;;;33.15;15.85;;;;;;;6.39;41.54;98949.83;4346352;80;21610;-89
2022/03/03 14:11:05;;;;;;;26.05;15.95;;;;;;;6.35;40.16;98948.16;4356675;80;21007;-91
2022/03/03 14:17:07;;;;;;;29.55;14.93;;;;;;;6.27;39.76;98943.66;4355058;80;21019;-90
2022/03/03 14:23:13;;;;;;;47.15;17.20;;;;;;;6.20;40.74;98933.38;4356045;81;21019;-90
2022/03/03 14:29:15;;;;;;;32.48;16.67;;;;;;;6.21;40.67;98926.83;4350816;80;21591;-92
2022/03/03 14:35:17;;;;;;;26.70;14.85;;;;;;;6.06;40.63;98919.41;4353054;81;21019;-89
2022/03/03 14:41:19;;;;;;;27.90;15.28;;;;;;;5.99;40.79;98917.88;4341731;81;21111;-90
2022/03/03 14:47:20;;;;;;;32.80;17.40;;;;;;;6.09;40.69;98907.08;4339397;80;21079;-90
2022/03/03 14:53:21;;;;;;;35.17;17.70;;;;;;;6.09;40.92;98913.28;4332908;80;21101;-89
2022/03/03 14:59:24;;;;;;;33.95;18.07;;;;;;;5.96;40.77;98907.70;4340473;80;21099;-89
2022/03/03 15:05:31;;;;;;;29.02;17.05;;;;;;;5.78;40.73;98907.72;4336594;80;21059;-89
2022/03/03 15:11:34;;;;;;;46.33;21.57;;;;;;;5.64;40.62;98906.52;4319675;80;22333;-89
2022/03/03 15:17:37;;;;;;;67.97;33.13;;;;;;;5.42;41.68;98908.41;4342263;80;21038;-89
2022/03/03 15:23:38;;;;;;;65.03;35.15;;;;;;;5.21;42.04;98907.77;4345666;80;21534;-89
2022/03/03 15:29:40;;;;;;;60.03;32.58;;;;;;;4.86;42.64;98908.80;4345849;80;21042;-91
2022/03/03 15:42:05;;;;;;;78.90;36.85;;;;;;;4.38;43.67;98901.98;4344928;80;21070;-89
2022/03/03 15:48:07;;;;;;;84.75;41.20;;;;;;;4.22;43.80;98902.39;4350323;80;21076;-90
2022/03/03 15:54:09;;;;;;;88.00;40.60;;;;;;;4.10;43.94;98904.50;4359308;81;21114;-90
2022/03/03 16:00:12;;;;;;;94.62;43.90;;;;;;;3.93;44.38;98910.09;4343993;81;21077;-88
2022/03/03 16:06:14;;;;;;;84.80;38.95;;;;;;;3.71;44.30;98911.03;4346202;80;22105;-88
2022/03/03 16:12:15;;;;;;;79.10;38.73;;;;;;;3.52;44.70;98917.47;4351774;80;21098;-89
2022/03/03 16:18:24;;;;;;;82.05;38.98;;;;;;;3.37;45.02;98918.84;4364003;80;21655;-89
2022/03/03 16:24:25;;;;;;;73.37;34.53;;;;;;;3.26;44.95;98928.47;4356301;80;21384;-93
2022/03/03 16:30:27;;;;;;;75.65;35.25;;;;;;;3.09;45.55;98925.87;4356853;80;21315;-93
2022/03/03 16:36:34;;;;;;;80.28;37.95;;;;;;;2.80;45.92;98934.77;4353655;81;21040;-90
2022/03/03 16:42:34;;;;;;;88.30;38.78;;;;;;;2.66;46.15;98932.84;4352017;80;20986;-89
2022/03/03 16:48:35;;;;;;;82.55;38.63;;;;;;;2.51;46.31;98931.23;4357424;81;21079;-89
2022/03/03 16:54:37;;;;;;;89.80;41.42;;;;;;;2.41;46.91;98928.33;4349250;80;20995;-89
2022/03/03 17:00:39;;;;;;;95.77;44.67;;;;;;;2.01;46.67;98931.60;4352695;81;21072;-90
2022/03/03 17:06:41;;;;;;;296.93;91.53;;;;;;;1.77;47.33;98936.16;4358943;80;21014;-91
2022/03/03 17:12:45;;;;;;;124.22;53.55;;;;;;;1.66;49.34;98940.28;4353597;81;21046;-90
2022/03/03 17:18:47;;;;;;;194.45;66.90;;;;;;;1.34;50.18;98939.41;4355015;81;21009;-88
2022/03/03 17:24:48;;;;;;;107.00;48.15;;;;;;;1.19;49.59;98934.48;4356950;80;21540;-89
2022/03/03 17:30:50;;;;;;;112.28;49.40;;;;;;;0.93;49.24;98944.39;4352357;80;21359;-90
2022/03/03 17:36:53;;;;;;;116.20;50.83;;;;;;;0.58;49.60;98956.17;4353312;80;21727;-92
2022/03/03 17:42:54;;;;;;;115.75;50.33;;;;;;;0.27;50.08;98957.50;4221569;82;21098;-90
2022/03/03 17:48:57;;;;;;;137.75;57.00;;;;;;;0.00;50.50;98960.37;4340366;80;21294;-90
2022/03/03 17:54:58;;;;;;;150.15;59.95;;;;;;;-0.15;50.60;98971.48;4353059;81;21074;-90
2022/03/03 18:01:00;;;;;;;148.35;63.58;;;;;;;-0.37;50.99;98969.58;4357842;81;21105;-89
2022/03/03 18:07:03;;;;;;;148.02;63.68;;;;;;;-0.61;52.97;98955.59;4343008;80;21355;-90
2022/03/03 18:13:05;;;;;;;151.63;66.65;;;;;;;-0.61;52.50;98977.67;4352454;80;21409;-90
2022/03/03 18:19:07;;;;;;;151.55;65.87;;;;;;;-0.67;53.38;98975.62;4349725;81;21047;-89
2022/03/03 18:25:09;;;;;;;174.05;76.85;;;;;;;-0.67;53.92;98968.10;4230998;80;10000330;-89
2022/03/03 18:31:12;;;;;;;119.93;55.38;;;;;;;-0.62;54.31;98980.90;4350263;80;22414;-90
2022/03/03 18:37:15;;;;;;;139.50;65.17;;;;;;;-0.52;55.74;98985.27;4353963;80;21084;-89
2022/03/03 18:43:18;;;;;;;137.47;62.62;;;;;;;-0.48;55.20;98990.27;4336322;80;21076;-90
2022/03/03 18:49:19;;;;;;;142.25;64.10;;;;;;;-0.50;55.64;98986.54;4343085;81;21951;-90
2022/03/03 18:55:23;;;;;;;147.47;66.17;;;;;;;-0.53;55.88;98985.00;4346515;80;21058;-88
2022/03/03 19:01:24;;;;;;;118.17;54.90;;;;;;;-0.57;55.19;98988.05;4352568;81;22360;-91
2022/03/03 19:07:27;;;;;;;149.72;68.22;;;;;;;-0.59;56.95;98991.05;4345760;81;21494;-94
2022/03/03 19:13:28;;;;;;;150.43;63.47;;;;;;;-0.50;57.28;98995.17;4349458;81;21353;-89
2022/03/03 19:19:30;;;;;;;149.23;67.60;;;;;;;-0.49;56.58;98994.06;4354360;81;21048;-88
2022/03/03 19:25:32;;;;;;;160.75;74.07;;;;;;;-0.55;57.91;98997.40;4226315;81;9999970;-90
2022/03/03 19:31:35;;;;;;;168.78;75.67;;;;;;;-0.54;57.84;99004.39;4355122;80;21732;-87
2022/03/03 19:37:37;;;;;;;175.42;75.10;;;;;;;-0.54;58.07;99004.39;4345242;80;21570;-90
2022/03/03 19:43:39;;;;;;;180.80;80.33;;;;;;;-0.69;57.30;99018.70;4242833;82;21055;-92
2022/03/03 19:49:42;;;;;;;175.50;74.13;;;;;;;-0.85;58.47;99033.01;4252166;82;21125;-89
2022/03/03 19:55:43;;;;;;;164.03;70.65;;;;;;;-1.02;58.44;99032.01;4251331;82;21549;-89
2022/03/03 20:01:54;;;;;;;169.73;72.33;;;;;;;-1.21;58.50;99044.73;4252933;83;21039;-88
2022/03/03 20:07:59;;;;;;;147.17;63.57;;;;;;;-1.23;58.47;99049.05;4255474;82;21573;-89
2022/03/03 20:14:09;;;;;;;136.13;58.90;;;;;;;-1.20;59.40;99059.20;4253355;82;21644;-88
2022/03/03 20:20:14;;;;;;;120.83;53.13;;;;;;;-1.21;59.32;99065.67;4254193;82;21905;-89
2022/03/03 20:26:26;;;;;;;117.30;52.87;;;;;;;-1.20;59.41;99076.66;4252385;83;21053;-88
2022/03/03 20:32:42;;;;;;;127.77;56.40;;;;;;;-1.24;59.85;99078.89;4256169;83;21078;-89
2022/03/03 20:38:42;;;;;;;107.17;49.93;;;;;;;-1.23;60.87;99077.79;4251569;83;21045;-89
2022/03/03 20:44:46;;;;;;;101.63;46.97;;;;;;;-1.24;60.73;99093.67;4244016;82;22226;-90
2022/03/03 20:51:00;;;;;;;112.57;52.17;;;;;;;-1.26;61.93;99088.59;4211605;83;21590;-88
2022/03/03 20:57:05;;;;;;;111.83;51.67;;;;;;;-1.31;61.73;99094.05;4243445;83;21111;-89
2022/03/03 21:03:08;;;;;;;88.05;40.08;;;;;;;-1.35;62.28;99105.14;4233109;83;21115;-89
2022/03/03 21:09:11;;;;;;;117.57;52.90;;;;;;;-1.34;61.22;99105.91;4247250;82;21606;-89
2022/03/03 21:15:13;;;;;;;115.07;52.03;;;;;;;-1.33;62.24;99109.65;4246455;83;21066;-89
2022/03/03 21:21:15;;;;;;;133.43;59.77;;;;;;;-1.34;61.47;99116.13;4222968;83;22052;-93
2022/03/03 21:27:17;;;;;;;179.67;76.60;;;;;;;-1.37;61.79;99110.53;4189209;83;21122;-92
2022/03/03 21:33:19;;;;;;;124.77;56.23;;;;;;;-1.40;62.07;99113.81;4242954;82;22739;-88
2022/03/03 21:39:20;;;;;;;122.17;56.37;;;;;;;-1.43;63.00;99121.11;4206875;83;21067;-89
2022/03/03 21:45:21;;;;;;;125.50;56.83;;;;;;;-1.45;63.26;99123.28;4218357;83;21049;-89
2022/03/03 21:51:23;;;;;;;119.30;55.33;;;;;;;-1.51;64.21;99127.14;4224004;83;21012;-89
2022/03/03 21:57:25;;;;;;;105.10;49.70;;;;;;;-1.42;65.00;99134.25;4245957;83;21047;-91
2022/03/03 22:03:27;;;;;;;111.93;51.77;;;;;;;-1.43;64.40;99128.63;4208598;83;21045;-88
2022/03/03 22:09:29;;;;;;;111.37;52.23;;;;;;;-1.42;65.27;99130.22;4205695;84;21854;-93
2022/03/03 22:15:31;;;;;;;121.20;52.30;;;;;;;-1.36;65.98;99140.34;4218995;84;21091;-91
2022/03/03 22:21:37;;;;;;;115.10;52.30;;;;;;;-1.34;66.19;99142.98;4203567;84;21079;-90
2022/03/03 22:27:40;;;;;;;107.87;51.07;;;;;;;-1.24;66.71;99148.20;4199606;84;21092;-90
2022/03/03 22:33:41;;;;;;;92.13;45.90;;;;;;;-1.17;67.08;99147.25;4217416;84;21072;-89
2022/03/03 22:39:45;;;;;;;98.97;45.80;;;;;;;-1.14;65.89;99147.23;4260917;82;21065;-89
2022/03/03 22:45:46;;;;;;;106.75;47.23;;;;;;;-1.07;66.71;99146.28;4264570;83;21112;-89
2022/03/03 22:58:09;;;;;;;102.67;46.60;;;;;;;-0.98;67.25;99141.28;4263783;82;21671;-88
2022/03/03 23:10:32;;;;;;;105.97;48.47;;;;;;;-0.87;67.04;99134.63;4263283;82;21036;-87
2022/03/03 23:16:34;;;;;;;114.00;51.83;;;;;;;-0.85;67.48;99139.17;4261920;82;21591;-88
2022/03/03 23:22:36;;;;;;;112.53;50.67;;;;;;;-0.84;68.05;99137.26;4264631;82;22279;-89
2022/03/03 23:28:39;;;;;;;94.47;42.93;;;;;;;-0.77;68.32;99143.05;4263928;82;21103;-88
2022/03/03 23:34:41;;;;;;;104.03;47.33;;;;;;;-0.76;67.45;99131.20;4264668;83;21109;-89
2022/03/03 23:40:42;;;;;;;108.37;50.00;;;;;;;-0.75;68.08;99131.47;4260672;82;21634;-86
2022/03/03 23:46:45;;;;;;;95.50;45.80;;;;;;;-0.71;68.59;99133.26;4243704;83;21068;-88
2022/03/03 23:52:47;;;;;;;95.83;44.40;;;;;;;-0.68;68.66;99129.97;4354294;80;21031;-88
2022/03/03 23:58:48;;;;;;;97.90;45.57;;;;;;;-0.64;68.94;99134.21;4355992;81;22023;-90
